Arubaborg — PCCY — position and weather

sailwx.info

Track history (hours):
 
Tides and Currents Weather Stations Pressure Air Temp Water Temp Dewpoint Dewpoint Depression Visibility Wind Speed Wind Dir Waves Ship Positions

Arubaborg

Last reported at 2017-Sep-05 12:20 UTC. Time now 2017-Sep-24 10:39 UTC.
Position N 09°46' W 079°58'.
Warning: this ship's position is 18 days out of date.

Length 142 m; draft 6.1 m.

Type: Cargo ship. MMSI: 246719000.

Date/timePositionNaut miles runAvg speedWind from/ knotsBaromVisibWave heightAir tempDewpointWater temp
2017-Sep-05 12:20N 09°46' W 079°58'413.1
2017-Sep-05 11:59N 09°42' W 079°58'613.2
2017-Sep-05 11:30N 09°36' W 079°56'713.7
2017-Sep-05 11:00N 09°29' W 079°55'713.6
2017-Sep-05 10:30N 09°22' W 079°55'510.2
2017-Sep-05 10:01N 09°17' W 079°55'1 1.3
2017-Sep-05 09:31N 09°16' W 079°55'0 0.7
2017-Sep-05 09:00N 09°16' W 079°55'0 0.4
2017-Sep-05 08:31N 09°16' W 079°55'1 2.4
2017-Sep-05 08:01N 09°15' W 079°55'4 8.0
2017-Sep-05 07:31N 09°11' W 079°53'1610.4
2017-Sep-05 05:56N 09°03' W 079°39'3 5.9
2017-Sep-05 05:27N 09°01' W 079°37'1 1.6
2017-Sep-05 04:52N 09°00' W 079°36'2 1.0
2017-Sep-05 03:13N 08°59' W 079°35'2 2.3
2017-Sep-05 02:14N 08°57' W 079°34'  
Track history (hours):
 
Tides and Currents Weather Stations Pressure Air Temp Water Temp Dewpoint Dewpoint Depression Visibility Wind Speed Wind Dir Waves Ship Positions

Arubaborg

Last reported at 2017-Sep-05 12:20 UTC. Time now 2017-Sep-24 10:39 UTC.
Position N 09°46' W 079°58'.
Warning: this ship's position is 18 days out of date.

Length 142 m; draft 6.1 m.

Type: Cargo ship. MMSI: 246719000.

Date/timePositionNaut miles runAvg speedWind from/ knotsBaromVisibWave heightAir tempDewpointWater temp
2017-Sep-05 12:20N 09°46' W 079°58'413.1
2017-Sep-05 11:59N 09°42' W 079°58'613.2
2017-Sep-05 11:30N 09°36' W 079°56'713.7
2017-Sep-05 11:00N 09°29' W 079°55'713.6
2017-Sep-05 10:30N 09°22' W 079°55'510.2
2017-Sep-05 10:01N 09°17' W 079°55'1 1.3
2017-Sep-05 09:31N 09°16' W 079°55'0 0.7
2017-Sep-05 09:00N 09°16' W 079°55'0 0.4
2017-Sep-05 08:31N 09°16' W 079°55'1 2.4
2017-Sep-05 08:01N 09°15' W 079°55'4 8.0
2017-Sep-05 07:31N 09°11' W 079°53'1610.4
2017-Sep-05 05:56N 09°03' W 079°39'3 5.9
2017-Sep-05 05:27N 09°01' W 079°37'1 1.6
2017-Sep-05 04:52N 09°00' W 079°36'2 1.0
2017-Sep-05 03:13N 08°59' W 079°35'2 2.3
2017-Sep-05 02:14N 08°57' W 079°34'  

Dump ship's entire track history